createdAt,value
2019-02-14T00:01:14.751Z,25.73
2019-02-14T00:03:44.900Z,21.07
2019-02-14T00:06:15.058Z,20.47
2019-02-14T00:08:45.956Z,15.83
2019-02-14T00:11:16.150Z,14.50
2019-02-14T00:13:46.350Z,17.35
2019-02-14T00:16:17.306Z,15.78
2019-02-14T00:18:47.487Z,18.77
2019-02-14T00:21:17.746Z,21.00
2019-02-14T00:23:47.896Z,16.00
2019-02-14T00:26:18.844Z,18.50
2019-02-14T00:28:48.990Z,21.48
2019-02-14T00:31:19.210Z,18.30
2019-02-14T00:33:49.365Z,16.45
2019-02-14T00:36:19.675Z,17.30
2019-02-14T00:38:50.998Z,16.73
2019-02-14T00:41:21.273Z,19.37
2019-02-14T00:43:51.425Z,19.77
2019-02-14T00:46:21.550Z,16.03
2019-02-14T00:49:14.769Z,21.87
2019-02-14T00:52:13.556Z,14.50
2019-02-14T00:55:08.617Z,15.07
2019-02-14T00:58:04.683Z,16.73
2019-02-14T01:01:01.216Z,17.93
2019-02-14T01:03:56.687Z,16.17
2019-02-14T01:06:53.353Z,16.00
2019-02-14T01:09:51.118Z,20.07
2019-02-14T01:12:46.823Z,19.57
2019-02-14T01:15:43.573Z,17.30
2019-02-14T01:18:39.850Z,20.33
2019-02-14T01:21:36.641Z,20.20
2019-02-14T01:24:32.941Z,23.47
2019-02-14T01:27:27.987Z,23.17
2019-02-14T01:30:24.033Z,29.63
2019-02-14T01:33:19.686Z,23.43
2019-02-14T01:36:16.231Z,25.32
2019-02-14T01:39:12.989Z,26.90
2019-02-14T01:42:09.693Z,16.87
2019-02-14T01:45:06.354Z,21.43
2019-02-14T01:48:01.737Z,22.40
2019-02-14T01:50:59.252Z,20.37
2019-02-14T01:53:55.199Z,16.50
2019-02-14T01:56:50.906Z,19.20
2019-02-14T01:59:47.705Z,20.47
2019-02-14T02:02:42.978Z,20.73
2019-02-14T02:05:39.745Z,19.80
2019-02-14T02:08:36.587Z,15.47
2019-02-14T02:11:34.317Z,16.80
2019-02-14T02:14:29.811Z,18.77
2019-02-14T02:17:25.409Z,18.30
2019-02-14T02:20:20.879Z,17.97
2019-02-14T02:23:19.843Z,17.10
2019-02-14T02:26:16.596Z,15.03
2019-02-14T02:29:12.095Z,19.10
2019-02-14T02:32:09.439Z,14.10
2019-02-14T02:35:04.508Z,14.73
2019-02-14T02:38:01.053Z,18.53
2019-02-14T02:40:56.542Z,19.30
2019-02-14T02:43:53.128Z,18.20
2019-02-14T02:46:49.823Z,29.00
2019-02-14T02:49:46.556Z,18.73
2019-02-14T02:52:44.151Z,20.20
2019-02-14T02:55:39.817Z,18.30
2019-02-14T02:58:35.727Z,19.30
2019-02-14T03:01:32.214Z,19.37
2019-02-14T03:04:27.904Z,22.42
2019-02-14T03:07:24.642Z,21.70
2019-02-14T03:14:41.702Z,17.23
2019-02-14T03:17:38.179Z,17.80
2019-02-14T03:20:33.683Z,26.47
2019-02-14T03:23:32.309Z,29.23
2019-02-14T03:26:28.120Z,17.77
2019-02-14T03:29:25.474Z,17.30
2019-02-14T03:32:20.911Z,16.67
2019-02-14T03:35:18.210Z,18.57
2019-02-14T03:38:14.358Z,16.07
2019-02-14T03:41:09.832Z,17.50
2019-02-14T03:44:07.129Z,16.17
2019-02-14T03:47:02.748Z,17.53
2019-02-14T03:50:00.612Z,23.10
2019-02-14T03:52:57.302Z,19.23
2019-02-14T03:55:53.794Z,20.00
2019-02-14T03:58:49.148Z,20.10
2019-02-14T04:01:46.495Z,15.68
2019-02-14T04:04:43.194Z,15.10
2019-02-14T04:07:46.309Z,17.70
2019-02-14T04:10:42.886Z,24.33
2019-02-14T04:13:38.349Z,17.17
2019-02-14T04:16:36.235Z,16.97
2019-02-14T04:19:32.010Z,15.30
2019-02-14T04:22:28.673Z,14.70
2019-02-14T04:25:24.998Z,18.43
2019-02-14T04:28:20.679Z,16.60
2019-02-14T04:31:15.746Z,19.70
2019-02-14T04:34:13.320Z,14.00
2019-02-14T04:37:09.796Z,19.10
2019-02-14T04:40:04.830Z,15.87
2019-02-14T04:43:02.603Z,23.67
2019-02-14T04:45:58.120Z,24.17
2019-02-14T04:48:54.621Z,24.67
2019-02-14T04:51:51.199Z,14.20
2019-02-14T04:54:48.000Z,20.70
2019-02-14T04:57:42.979Z,29.80
2019-02-14T05:00:39.495Z,18.17
2019-02-14T05:03:35.979Z,20.80
2019-02-14T05:06:31.474Z,16.17
2019-02-14T05:09:28.955Z,15.80
2019-02-14T05:12:23.964Z,20.53
2019-02-14T05:15:21.720Z,18.67
2019-02-14T05:18:18.211Z,16.13
2019-02-14T05:21:15.215Z,17.67
2019-02-14T05:24:12.708Z,20.20
2019-02-14T05:27:08.195Z,19.97
2019-02-14T05:30:05.075Z,21.70
2019-02-14T05:33:00.555Z,15.23
2019-02-14T05:35:57.987Z,17.30
2019-02-14T05:38:53.706Z,23.13
2019-02-14T05:41:50.296Z,22.90
2019-02-14T05:44:47.543Z,16.02
2019-02-14T05:47:44.792Z,14.63
2019-02-14T05:50:42.144Z,23.70
2019-02-14T05:53:38.716Z,16.67
2019-02-14T05:56:35.217Z,17.90
2019-02-14T05:59:30.660Z,30.00
2019-02-14T06:02:26.629Z,37.37
2019-02-14T06:05:23.391Z,22.07
2019-02-14T06:08:19.877Z,20.37
2019-02-14T06:11:14.522Z,16.70
2019-02-14T06:14:10.889Z,18.13
2019-02-14T06:17:07.306Z,18.53
2019-02-14T06:20:04.020Z,18.40
2019-02-14T06:23:00.767Z,16.82
2019-02-14T06:25:57.336Z,21.03
2019-02-14T06:28:54.103Z,20.00
2019-02-14T06:31:49.719Z,17.00
2019-02-14T06:34:44.706Z,14.37
2019-02-14T06:37:41.218Z,21.93
2019-02-14T06:40:36.947Z,19.37
2019-02-14T06:43:33.666Z,19.17
2019-02-14T06:46:30.167Z,21.07
2019-02-14T06:49:26.883Z,26.83
2019-02-14T06:52:24.516Z,22.73
2019-02-14T06:55:21.241Z,24.83
2019-02-14T06:58:17.860Z,24.77
2019-02-14T07:01:13.642Z,28.07
2019-02-14T07:04:10.157Z,19.97
2019-02-14T07:07:07.706Z,20.50
2019-02-14T07:10:04.324Z,21.53
2019-02-14T07:13:00.948Z,23.60
2019-02-14T07:15:56.247Z,21.17
2019-02-14T07:18:54.018Z,21.20
2019-02-14T07:21:51.625Z,20.13
2019-02-14T07:24:47.180Z,23.57
2019-02-14T07:27:43.844Z,29.30
2019-02-14T07:30:39.527Z,24.80
2019-02-14T07:33:36.047Z,23.60
2019-02-14T07:36:32.830Z,20.80
2019-02-14T07:39:28.717Z,22.73
2019-02-14T07:42:25.254Z,20.97
2019-02-14T07:45:21.684Z,21.37
2019-02-14T07:48:18.436Z,24.35
2019-02-14T07:51:13.965Z,25.03
2019-02-14T07:54:10.781Z,19.90
2019-02-14T07:57:06.507Z,18.20
2019-02-14T08:00:02.660Z,19.93
2019-02-14T08:02:58.087Z,19.50
2019-02-14T08:05:54.792Z,21.87
2019-02-14T08:08:50.307Z,16.23
2019-02-14T08:11:46.543Z,20.87
2019-02-14T08:14:43.072Z,20.47
2019-02-14T08:17:39.520Z,18.43
2019-02-14T08:20:36.227Z,21.33
2019-02-14T08:23:32.789Z,21.25
2019-02-14T08:26:31.015Z,20.23
2019-02-14T08:29:27.590Z,20.70
2019-02-14T08:32:36.348Z,20.23
2019-02-14T08:35:40.071Z,16.10
2019-02-14T08:38:35.594Z,19.00
2019-02-14T08:41:32.489Z,20.70
2019-02-14T08:44:28.260Z,21.90
2019-02-14T08:47:26.081Z,21.10
2019-02-14T08:50:21.787Z,19.70
2019-02-14T08:53:18.520Z,21.95
2019-02-14T08:56:14.030Z,21.35
2019-02-14T08:59:15.668Z,24.57
2019-02-14T09:02:12.195Z,16.03
2019-02-14T09:05:07.472Z,16.53
2019-02-14T09:08:03.997Z,14.70
2019-02-14T09:11:00.615Z,16.90
2019-02-14T09:13:57.337Z,17.90
2019-02-14T09:16:52.676Z,16.23
2019-02-14T09:19:49.266Z,17.23
2019-02-14T09:22:46.718Z,27.47
2019-02-14T09:25:43.367Z,15.58
2019-02-14T09:28:42.010Z,19.53
2019-02-14T09:31:37.483Z,13.87
2019-02-14T09:34:34.223Z,17.93
2019-02-14T09:37:30.679Z,15.90
2019-02-14T09:40:26.913Z,17.10
2019-02-14T09:43:29.644Z,20.57
2019-02-14T09:46:19.419Z,12.82
2019-02-14T09:49:16.062Z,15.30
2019-02-14T09:52:11.654Z,14.37
2019-02-14T09:55:08.388Z,17.90
2019-02-14T09:58:04.033Z,14.70
2019-02-14T10:01:00.578Z,19.75
2019-02-14T10:03:56.087Z,13.55
2019-02-14T10:06:52.651Z,23.00
2019-02-14T10:09:48.542Z,17.95
2019-02-14T10:12:45.149Z,12.73
2019-02-14T10:15:41.861Z,17.70
2019-02-14T10:18:37.421Z,18.07
2019-02-14T10:21:34.960Z,18.33
2019-02-14T10:24:30.494Z,15.53
2019-02-14T10:27:28.876Z,13.80
2019-02-14T10:30:26.198Z,12.63
2019-02-14T10:33:22.910Z,11.18
2019-02-14T10:36:19.921Z,12.63
2019-02-14T10:39:22.432Z,13.73
2019-02-14T10:42:19.913Z,21.25
2019-02-14T10:45:23.859Z,12.87
2019-02-14T10:48:27.786Z,15.07
2019-02-14T10:51:29.461Z,14.47
2019-02-14T10:54:25.999Z,11.07
2019-02-14T10:57:21.958Z,15.80
2019-02-14T11:00:18.873Z,13.73
2019-02-14T11:03:15.341Z,14.83
2019-02-14T11:06:11.043Z,16.37
2019-02-14T11:09:07.553Z,10.70
2019-02-14T11:12:06.455Z,20.40
2019-02-14T11:15:02.954Z,12.53
2019-02-14T11:17:58.316Z,10.77
2019-02-14T11:20:54.617Z,21.50
2019-02-14T11:23:52.381Z,15.13
2019-02-14T11:26:47.210Z,15.10
2019-02-14T11:29:46.151Z,12.27
2019-02-14T11:32:41.726Z,13.50
2019-02-14T11:35:38.180Z,14.13
2019-02-14T11:38:40.373Z,13.23
2019-02-14T11:41:30.150Z,15.07
2019-02-14T11:44:27.762Z,12.77
2019-02-14T11:47:23.349Z,12.30
2019-02-14T11:50:21.508Z,14.78
2019-02-14T11:53:16.449Z,17.60
2019-02-14T11:56:13.209Z,15.67
2019-02-14T11:59:08.701Z,18.47
2019-02-14T12:02:05.443Z,19.00
2019-02-14T12:05:02.194Z,20.67
2019-02-14T12:07:58.662Z,20.03
2019-02-14T12:10:54.181Z,15.70
2019-02-14T12:13:50.681Z,14.83
2019-02-14T12:16:47.231Z,15.20
2019-02-14T12:19:42.705Z,11.70
2019-02-14T12:22:46.356Z,13.47
2019-02-14T12:25:35.756Z,12.07
2019-02-14T12:28:32.543Z,11.13
2019-02-14T12:31:30.341Z,14.00
2019-02-14T12:34:26.045Z,20.43
2019-02-14T12:37:22.804Z,17.57
2019-02-14T12:40:18.883Z,19.30
2019-02-14T12:43:15.687Z,19.70
2019-02-14T12:46:11.445Z,20.80
2019-02-14T12:49:08.026Z,17.25
2019-02-14T12:52:02.793Z,13.97
2019-02-14T12:55:00.299Z,13.83
2019-02-14T12:57:55.670Z,9.73
2019-02-14T13:00:52.976Z,12.20
2019-02-14T13:03:54.591Z,8.83
2019-02-14T13:06:49.974Z,8.07
2019-02-14T13:09:46.718Z,11.03
2019-02-14T13:12:43.373Z,10.60
2019-02-14T13:15:40.837Z,10.87
2019-02-14T13:18:36.359Z,10.80
2019-02-14T13:21:34.021Z,11.73
2019-02-14T13:24:30.337Z,11.47
2019-02-14T13:27:25.891Z,10.23
2019-02-14T13:30:22.449Z,10.77
2019-02-14T13:33:18.247Z,13.00
2019-02-14T13:36:14.785Z,10.83
2019-02-14T13:39:10.250Z,14.80
2019-02-14T13:42:08.858Z,9.40
2019-02-14T13:45:05.541Z,10.63
2019-02-14T13:48:01.023Z,9.50
2019-02-14T13:50:58.852Z,11.60
2019-02-14T13:53:54.542Z,16.05
2019-02-14T13:56:54.144Z,10.00
2019-02-14T13:59:48.057Z,10.27
2019-02-14T14:02:44.522Z,11.80
2019-02-14T14:05:40.352Z,11.50
2019-02-14T14:08:36.063Z,14.67
2019-02-14T14:11:33.562Z,9.95
2019-02-14T14:14:29.297Z,9.90
2019-02-14T14:17:26.034Z,18.83
2019-02-14T14:20:21.637Z,12.80
2019-02-14T14:23:19.887Z,10.47
2019-02-14T14:26:14.056Z,8.58
2019-02-14T14:29:09.743Z,11.00
2019-02-14T14:32:06.505Z,11.40
2019-02-14T14:35:03.238Z,10.40
2019-02-14T14:37:59.950Z,10.20
2019-02-14T14:40:57.764Z,12.67
2019-02-14T14:44:04.884Z,8.83
2019-02-14T14:47:04.879Z,8.63
2019-02-14T14:50:00.359Z,10.58
2019-02-14T14:52:58.603Z,9.93
2019-02-14T14:55:56.981Z,11.22
2019-02-14T14:58:54.814Z,15.70
2019-02-14T15:02:01.872Z,17.48
2019-02-14T15:04:57.325Z,18.13
2019-02-14T15:07:54.814Z,29.80
2019-02-14T15:10:50.985Z,15.30
2019-02-14T15:13:58.987Z,11.03
2019-02-14T15:17:00.644Z,13.57
2019-02-14T15:19:57.215Z,10.68
2019-02-14T15:22:53.359Z,10.10
2019-02-14T15:25:49.264Z,16.73
2019-02-14T15:28:46.865Z,8.83
2019-02-14T15:31:43.391Z,10.73
2019-02-14T15:34:39.994Z,9.75
2019-02-14T15:37:38.813Z,13.97
2019-02-14T15:40:35.632Z,13.90
2019-02-14T15:43:32.494Z,11.87
2019-02-14T15:46:29.414Z,11.03
2019-02-14T15:49:25.468Z,13.00
2019-02-14T15:52:32.325Z,10.70
2019-02-14T15:55:28.455Z,13.18
2019-02-14T15:58:25.206Z,9.73
2019-02-14T16:01:21.813Z,14.33
2019-02-14T16:04:18.384Z,9.60
2019-02-14T16:07:17.562Z,10.80
2019-02-14T16:10:18.217Z,21.87
2019-02-14T16:13:09.224Z,9.40
2019-02-14T16:16:03.083Z,11.65
2019-02-14T16:18:59.817Z,10.75
2019-02-14T16:21:56.455Z,17.43
2019-02-14T16:24:52.142Z,37.45
2019-02-14T16:27:50.566Z,36.27
2019-02-14T16:30:46.012Z,24.07
2019-02-14T16:33:43.864Z,16.10
2019-02-14T16:36:41.799Z,15.40
2019-02-14T16:39:38.499Z,17.37
2019-02-14T16:42:35.050Z,23.50
2019-02-14T16:45:30.164Z,17.73
2019-02-14T16:48:26.724Z,15.47
2019-02-14T16:51:22.107Z,19.03
2019-02-14T16:54:19.726Z,13.40
2019-02-14T16:57:16.557Z,12.60
2019-02-14T17:00:12.159Z,20.57
2019-02-14T17:03:09.586Z,15.10
2019-02-14T17:06:05.100Z,9.90
2019-02-14T17:09:01.143Z,15.60
2019-02-14T17:11:57.869Z,14.70
2019-02-14T17:14:53.260Z,18.23
2019-02-14T17:17:50.783Z,32.97
2019-02-14T17:20:46.014Z,37.83
2019-02-14T17:23:48.757Z,24.70
2019-02-14T17:26:45.659Z,21.27
2019-02-14T17:29:41.451Z,35.67
2019-02-14T17:32:37.632Z,20.75
2019-02-14T17:35:33.900Z,39.90
2019-02-14T17:38:31.591Z,28.00
2019-02-14T17:41:29.127Z,27.60
2019-02-14T17:44:27.608Z,38.23
2019-02-14T17:47:23.684Z,20.97
2019-02-14T17:50:18.917Z,24.50
2019-02-14T17:53:15.496Z,34.20
2019-02-14T17:56:11.218Z,20.03
2019-02-14T17:59:07.959Z,15.00
2019-02-14T18:02:09.508Z,19.48
2019-02-14T18:05:05.112Z,20.63
2019-02-14T18:08:01.776Z,21.63
2019-02-14T18:10:57.563Z,14.57
2019-02-14T18:13:53.626Z,25.20
2019-02-14T18:16:50.476Z,20.30
2019-02-14T18:19:46.129Z,21.93
2019-02-14T18:22:43.741Z,14.27
2019-02-14T18:25:40.549Z,19.00
2019-02-14T18:28:37.518Z,35.80
2019-02-14T18:31:32.947Z,37.10
2019-02-14T18:34:30.590Z,32.73
2019-02-14T18:37:27.507Z,22.00
2019-02-14T18:40:23.795Z,20.70
2019-02-14T18:43:21.383Z,23.10
2019-02-14T18:46:18.233Z,33.93
2019-02-14T18:49:16.223Z,38.37
2019-02-14T18:52:12.908Z,39.30
2019-02-14T18:55:09.700Z,22.57
2019-02-14T18:58:06.280Z,23.80
2019-02-14T19:01:01.890Z,26.23
2019-02-14T19:03:58.684Z,20.23
2019-02-14T19:06:55.294Z,20.07
2019-02-14T19:09:50.006Z,26.00
2019-02-14T19:12:47.453Z,25.07
2019-02-14T19:15:43.041Z,24.23
2019-02-14T19:18:40.712Z,20.77
2019-02-14T19:21:37.384Z,19.40
2019-02-14T19:24:33.948Z,25.20
2019-02-14T19:27:29.776Z,21.57
2019-02-14T19:30:26.204Z,31.33
2019-02-14T19:33:24.078Z,23.87
2019-02-14T19:36:20.680Z,17.83
2019-02-14T19:39:17.515Z,20.37
2019-02-14T19:42:30.149Z,20.57
2019-02-14T19:45:38.131Z,20.33
2019-02-14T19:48:33.156Z,22.58
2019-02-14T19:51:29.939Z,16.70
2019-02-14T19:54:26.213Z,16.60
2019-02-14T19:57:22.339Z,17.27
2019-02-14T20:00:19.000Z,21.70
2019-02-14T20:03:15.713Z,17.80
2019-02-14T20:06:12.713Z,13.83
2019-02-14T20:09:09.774Z,17.62
2019-02-14T20:12:05.382Z,19.13
2019-02-14T20:15:02.204Z,18.93
2019-02-14T20:17:58.628Z,12.33
2019-02-14T20:20:54.454Z,15.83
2019-02-14T20:23:50.279Z,15.67
2019-02-14T20:26:48.081Z,18.80
2019-02-14T20:29:45.090Z,17.83
2019-02-14T20:32:40.849Z,18.23
2019-02-14T20:35:37.239Z,22.00
2019-02-14T20:38:32.567Z,17.93
2019-02-14T20:41:29.389Z,17.17
2019-02-14T20:44:25.792Z,16.30
2019-02-14T20:47:23.593Z,18.20
2019-02-14T20:50:19.467Z,17.33
2019-02-14T20:53:16.342Z,18.57
2019-02-14T20:56:13.062Z,17.90
2019-02-14T20:59:08.713Z,17.60
2019-02-14T21:02:07.544Z,15.97
2019-02-14T21:05:03.205Z,20.67
2019-02-14T21:07:59.851Z,19.73
2019-02-14T21:10:56.126Z,19.90
2019-02-14T21:13:52.758Z,18.67
2019-02-14T21:16:49.517Z,19.43
2019-02-14T21:19:47.174Z,16.10
2019-02-14T21:24:59.104Z,17.10
2019-02-14T21:27:30.333Z,24.73
2019-02-14T21:30:00.489Z,21.47
2019-02-14T21:32:30.765Z,23.83
2019-02-14T21:35:00.943Z,22.10
2019-02-14T21:37:31.160Z,28.90
2019-02-14T21:40:01.736Z,24.80
2019-02-14T21:42:32.471Z,30.87
2019-02-14T21:45:03.485Z,29.03
2019-02-14T21:47:33.760Z,27.33
2019-02-14T21:50:05.023Z,28.20
2019-02-14T21:52:35.177Z,30.27
2019-02-14T21:55:05.603Z,21.10
2019-02-14T21:57:35.851Z,25.83
2019-02-14T22:00:07.990Z,21.30
2019-02-14T22:02:39.004Z,24.30
2019-02-14T22:05:09.770Z,23.07
2019-02-14T22:07:40.070Z,18.50
2019-02-14T22:10:11.545Z,19.67
2019-02-14T22:12:44.138Z,20.30
2019-02-14T22:15:15.923Z,18.90
2019-02-14T22:17:46.174Z,16.60
2019-02-14T22:20:16.497Z,21.27
2019-02-14T22:22:47.561Z,20.48
2019-02-14T22:25:17.753Z,21.70
2019-02-14T22:27:47.920Z,18.93
2019-02-14T22:30:18.330Z,21.53
2019-02-14T22:32:48.492Z,18.07
2019-02-14T22:35:18.707Z,18.53
2019-02-14T22:37:48.862Z,20.33
2019-02-14T22:40:19.225Z,24.40
2019-02-14T22:42:49.598Z,17.47
2019-02-14T22:45:19.793Z,18.00
2019-02-14T22:47:49.975Z,14.27
2019-02-14T22:50:20.118Z,18.27
2019-02-14T22:52:50.296Z,17.48
2019-02-14T22:55:20.489Z,17.70
2019-02-14T22:57:50.663Z,21.30
2019-02-14T23:00:31.804Z,17.03
2019-02-14T23:03:02.832Z,17.17
2019-02-14T23:05:32.994Z,19.33
2019-02-14T23:10:32.443Z,15.23
2019-02-14T23:13:02.730Z,14.00
2019-02-14T23:15:32.860Z,14.43
2019-02-14T23:18:04.023Z,16.40
2019-02-14T23:20:34.976Z,21.00
2019-02-14T23:23:06.336Z,20.47
2019-02-14T23:25:37.280Z,17.27
2019-02-14T23:28:07.524Z,14.68
